< < Back
Terminal Aerodrome Forecast


Current Version              Previous Versions:   1  2  3  4  5  6  7  8  9  

Terminal Aerodrome Forecast

998
FTUS42 KTAE 281800 AAA
TAFTLH
TAF AMD
KTLH 281856Z 2819/0118 05009KT P6SM VCSH OVC010
     FM010300 05008KT P6SM OVC006
     FM010800 05007KT 4SM BR OVC003
     FM011400 06007KT P6SM OVC008=

Latest METAR

206
SAUS80 KWBC 282300
MTRTLH
METAR KTLH 282253Z 05008KT 10SM OVC010 11/08 A3041 RMK AO2 SLP298
T01060078 $


USA.gov is the U.S. government's official web portal to all federal, state and local government web resources and services.